sensor_id;sensor_type;location;lat;lon;timestamp;P1;durP1;ratioP1;P2;durP2;ratioP2
17858;SDS011;35426;30.698;104.050;2022-12-28T00:00:37;74.67;;;40.07;;
17858;SDS011;35426;30.698;104.050;2022-12-28T00:03:14;82.93;;;41.23;;
17858;SDS011;35426;30.698;104.050;2022-12-28T00:05:56;78.27;;;41.57;;
17858;SDS011;35426;30.698;104.050;2022-12-28T00:08:30;74.53;;;40.67;;
17858;SDS011;35426;30.698;104.050;2022-12-28T00:11:04;83.50;;;41.47;;
17858;SDS011;35426;30.698;104.050;2022-12-28T00:13:55;82.73;;;38.80;;
17858;SDS011;35426;30.698;104.050;2022-12-28T00:16:30;83.00;;;42.00;;
17858;SDS011;35426;30.698;104.050;2022-12-28T00:19:09;80.27;;;41.17;;
17858;SDS011;35426;30.698;104.050;2022-12-28T00:21:45;76.43;;;40.77;;
17858;SDS011;35426;30.698;104.050;2022-12-28T00:24:19;77.93;;;41.03;;
17858;SDS011;35426;30.698;104.050;2022-12-28T00:26:55;81.37;;;40.47;;
17858;SDS011;35426;30.698;104.050;2022-12-28T00:29:29;82.03;;;40.40;;
17858;SDS011;35426;30.698;104.050;2022-12-28T00:32:03;75.67;;;39.83;;
17858;SDS011;35426;30.698;104.050;2022-12-28T00:34:38;80.03;;;40.97;;
17858;SDS011;35426;30.698;104.050;2022-12-28T00:37:12;78.23;;;38.73;;
17858;SDS011;35426;30.698;104.050;2022-12-28T00:39:46;81.40;;;39.47;;
17858;SDS011;35426;30.698;104.050;2022-12-28T00:42:20;77.90;;;39.77;;
17858;SDS011;35426;30.698;104.050;2022-12-28T00:44:54;79.57;;;39.13;;
17858;SDS011;35426;30.698;104.050;2022-12-28T00:47:28;81.83;;;40.43;;
17858;SDS011;35426;30.698;104.050;2022-12-28T00:50:04;77.70;;;39.40;;
17858;SDS011;35426;30.698;104.050;2022-12-28T00:52:38;81.53;;;38.83;;
17858;SDS011;35426;30.698;104.050;2022-12-28T00:55:12;73.83;;;39.13;;
17858;SDS011;35426;30.698;104.050;2022-12-28T00:57:46;77.50;;;40.00;;
17858;SDS011;35426;30.698;104.050;2022-12-28T01:00:20;78.57;;;37.87;;
17858;SDS011;35426;30.698;104.050;2022-12-28T01:02:54;82.67;;;39.20;;
17858;SDS011;35426;30.698;104.050;2022-12-28T01:05:30;74.03;;;38.47;;
17858;SDS011;35426;30.698;104.050;2022-12-28T01:08:07;70.03;;;37.77;;
17858;SDS011;35426;30.698;104.050;2022-12-28T01:10:41;68.30;;;36.63;;
17858;SDS011;35426;30.698;104.050;2022-12-28T01:13:15;76.53;;;38.17;;
17858;SDS011;35426;30.698;104.050;2022-12-28T01:15:49;89.10;;;39.30;;
17858;SDS011;35426;30.698;104.050;2022-12-28T01:18:23;72.80;;;38.43;;
17858;SDS011;35426;30.698;104.050;2022-12-28T01:20:59;86.47;;;43.67;;
17858;SDS011;35426;30.698;104.050;2022-12-28T01:23:42;72.03;;;37.80;;
17858;SDS011;35426;30.698;104.050;2022-12-28T01:26:16;75.07;;;39.13;;
17858;SDS011;35426;30.698;104.050;2022-12-28T01:28:50;83.53;;;40.80;;
17858;SDS011;35426;30.698;104.050;2022-12-28T01:31:26;83.37;;;39.47;;
17858;SDS011;35426;30.698;104.050;2022-12-28T01:34:00;78.57;;;40.37;;
17858;SDS011;35426;30.698;104.050;2022-12-28T01:36:36;80.77;;;40.97;;
17858;SDS011;35426;30.698;104.050;2022-12-28T01:39:10;71.53;;;38.87;;
17858;SDS011;35426;30.698;104.050;2022-12-28T01:41:44;77.40;;;40.27;;
17858;SDS011;35426;30.698;104.050;2022-12-28T01:44:39;78.27;;;40.40;;
17858;SDS011;35426;30.698;104.050;2022-12-28T01:47:16;74.97;;;40.53;;
17858;SDS011;35426;30.698;104.050;2022-12-28T01:49:55;84.63;;;41.67;;
17858;SDS011;35426;30.698;104.050;2022-12-28T01:52:35;82.40;;;41.37;;
17858;SDS011;35426;30.698;104.050;2022-12-28T01:55:13;84.97;;;41.40;;
17858;SDS011;35426;30.698;104.050;2022-12-28T01:57:51;82.20;;;40.70;;
17858;SDS011;35426;30.698;104.050;2022-12-28T02:00:29;84.80;;;42.53;;
17858;SDS011;35426;30.698;104.050;2022-12-28T02:03:04;85.83;;;41.20;;
17858;SDS011;35426;30.698;104.050;2022-12-28T02:05:47;89.30;;;42.63;;
17858;SDS011;35426;30.698;104.050;2022-12-28T02:08:25;89.57;;;42.63;;
17858;SDS011;35426;30.698;104.050;2022-12-28T02:11:04;84.23;;;43.00;;
17858;SDS011;35426;30.698;104.050;2022-12-28T02:13:38;79.00;;;43.53;;
17858;SDS011;35426;30.698;104.050;2022-12-28T02:16:14;92.20;;;42.63;;
17858;SDS011;35426;30.698;104.050;2022-12-28T02:18:48;82.03;;;43.37;;
17858;SDS011;35426;30.698;104.050;2022-12-28T02:21:23;88.30;;;42.70;;
17858;SDS011;35426;30.698;104.050;2022-12-28T02:27:39;91.87;;;43.67;;
17858;SDS011;35426;30.698;104.050;2022-12-28T02:30:26;92.90;;;42.87;;
17858;SDS011;35426;30.698;104.050;2022-12-28T02:33:03;99.47;;;44.40;;
17858;SDS011;35426;30.698;104.050;2022-12-28T02:35:52;94.37;;;45.73;;
17858;SDS011;35426;30.698;104.050;2022-12-28T02:38:32;89.80;;;43.90;;
17858;SDS011;35426;30.698;104.050;2022-12-28T02:41:09;99.27;;;44.67;;
17858;SDS011;35426;30.698;104.050;2022-12-28T02:43:46;92.67;;;45.47;;
17858;SDS011;35426;30.698;104.050;2022-12-28T02:46:24;103.97;;;45.23;;
17858;SDS011;35426;30.698;104.050;2022-12-28T02:49:33;98.30;;;44.63;;
17858;SDS011;35426;30.698;104.050;2022-12-28T02:55:58;94.63;;;46.50;;
17858;SDS011;35426;30.698;104.050;2022-12-28T03:05:04;94.17;;;46.50;;
17858;SDS011;35426;30.698;104.050;2022-12-28T03:07:46;106.67;;;47.33;;
17858;SDS011;35426;30.698;104.050;2022-12-28T03:10:43;103.70;;;49.20;;
17858;SDS011;35426;30.698;104.050;2022-12-28T03:13:24;99.23;;;49.57;;
17858;SDS011;35426;30.698;104.050;2022-12-28T03:16:18;102.43;;;49.53;;
17858;SDS011;35426;30.698;104.050;2022-12-28T03:18:59;104.30;;;51.30;;
17858;SDS011;35426;30.698;104.050;2022-12-28T03:21:57;113.47;;;52.97;;
17858;SDS011;35426;30.698;104.050;2022-12-28T03:24:47;108.10;;;52.23;;
17858;SDS011;35426;30.698;104.050;2022-12-28T03:27:38;104.23;;;50.97;;
17858;SDS011;35426;30.698;104.050;2022-12-28T03:30:32;109.30;;;52.37;;
17858;SDS011;35426;30.698;104.050;2022-12-28T03:33:24;107.50;;;51.20;;
17858;SDS011;35426;30.698;104.050;2022-12-28T03:36:01;114.93;;;52.07;;
17858;SDS011;35426;30.698;104.050;2022-12-28T03:38:48;112.40;;;51.70;;
17858;SDS011;35426;30.698;104.050;2022-12-28T03:41:33;110.17;;;52.67;;
17858;SDS011;35426;30.698;104.050;2022-12-28T03:44:26;107.70;;;53.87;;
17858;SDS011;35426;30.698;104.050;2022-12-28T03:47:03;108.27;;;52.73;;
17858;SDS011;35426;30.698;104.050;2022-12-28T03:49:40;107.10;;;51.97;;
17858;SDS011;35426;30.698;104.050;2022-12-28T03:52:16;110.53;;;51.30;;
17858;SDS011;35426;30.698;104.050;2022-12-28T03:54:51;103.87;;;52.07;;
17858;SDS011;35426;30.698;104.050;2022-12-28T03:57:25;107.40;;;51.40;;
17858;SDS011;35426;30.698;104.050;2022-12-28T04:00:01;100.83;;;51.33;;
17858;SDS011;35426;30.698;104.050;2022-12-28T04:02:50;100.50;;;50.17;;
17858;SDS011;35426;30.698;104.050;2022-12-28T04:05:27;101.67;;;50.63;;
17858;SDS011;35426;30.698;104.050;2022-12-28T04:08:06;97.00;;;50.20;;
17858;SDS011;35426;30.698;104.050;2022-12-28T04:10:43;101.23;;;50.77;;
17858;SDS011;35426;30.698;104.050;2022-12-28T04:13:20;97.63;;;50.83;;
17858;SDS011;35426;30.698;104.050;2022-12-28T04:16:03;98.03;;;49.27;;
17858;SDS011;35426;30.698;104.050;2022-12-28T04:18:46;95.63;;;48.67;;
17858;SDS011;35426;30.698;104.050;2022-12-28T04:21:23;98.63;;;50.63;;
17858;SDS011;35426;30.698;104.050;2022-12-28T04:24:03;103.53;;;50.77;;
17858;SDS011;35426;30.698;104.050;2022-12-28T04:26:40;100.00;;;49.27;;
17858;SDS011;35426;30.698;104.050;2022-12-28T04:29:17;95.53;;;50.07;;
17858;SDS011;35426;30.698;104.050;2022-12-28T04:32:09;98.20;;;50.43;;
17858;SDS011;35426;30.698;104.050;2022-12-28T04:34:46;109.00;;;52.47;;
17858;SDS011;35426;30.698;104.050;2022-12-28T04:37:23;100.23;;;51.27;;
17858;SDS011;35426;30.698;104.050;2022-12-28T04:40:02;99.03;;;51.77;;
17858;SDS011;35426;30.698;104.050;2022-12-28T04:42:40;93.73;;;48.07;;
17858;SDS011;35426;30.698;104.050;2022-12-28T04:45:16;103.07;;;48.90;;
17858;SDS011;35426;30.698;104.050;2022-12-28T04:47:55;86.93;;;46.90;;
17858;SDS011;35426;30.698;104.050;2022-12-28T04:50:34;83.70;;;43.23;;
17858;SDS011;35426;30.698;104.050;2022-12-28T04:53:11;85.17;;;42.77;;
17858;SDS011;35426;30.698;104.050;2022-12-28T04:55:50;82.50;;;44.17;;
17858;SDS011;35426;30.698;104.050;2022-12-28T04:58:28;85.53;;;45.13;;
17858;SDS011;35426;30.698;104.050;2022-12-28T05:01:06;81.33;;;44.53;;
17858;SDS011;35426;30.698;104.050;2022-12-28T05:03:43;92.70;;;46.50;;
17858;SDS011;35426;30.698;104.050;2022-12-28T05:06:23;85.07;;;44.87;;
17858;SDS011;35426;30.698;104.050;2022-12-28T05:08:58;82.97;;;45.73;;
17858;SDS011;35426;30.698;104.050;2022-12-28T05:11:35;83.03;;;46.37;;
17858;SDS011;35426;30.698;104.050;2022-12-28T05:14:09;88.03;;;45.27;;
17858;SDS011;35426;30.698;104.050;2022-12-28T05:16:43;93.83;;;45.33;;
17858;SDS011;35426;30.698;104.050;2022-12-28T05:19:17;87.20;;;45.23;;
17858;SDS011;35426;30.698;104.050;2022-12-28T05:21:51;98.43;;;48.83;;
17858;SDS011;35426;30.698;104.050;2022-12-28T05:24:25;99.77;;;48.60;;
17858;SDS011;35426;30.698;104.050;2022-12-28T05:27:01;93.77;;;47.73;;
17858;SDS011;35426;30.698;104.050;2022-12-28T05:29:36;92.50;;;46.70;;
17858;SDS011;35426;30.698;104.050;2022-12-28T05:32:10;88.57;;;46.90;;
17858;SDS011;35426;30.698;104.050;2022-12-28T05:34:45;91.73;;;46.50;;
17858;SDS011;35426;30.698;104.050;2022-12-28T05:37:19;88.47;;;45.80;;
17858;SDS011;35426;30.698;104.050;2022-12-28T05:39:53;86.10;;;44.23;;
17858;SDS011;35426;30.698;104.050;2022-12-28T05:42:29;80.13;;;44.07;;
17858;SDS011;35426;30.698;104.050;2022-12-28T05:45:04;90.33;;;45.33;;
17858;SDS011;35426;30.698;104.050;2022-12-28T05:47:38;79.27;;;44.63;;
17858;SDS011;35426;30.698;104.050;2022-12-28T05:50:12;79.20;;;44.83;;
17858;SDS011;35426;30.698;104.050;2022-12-28T05:52:47;87.67;;;43.37;;
17858;SDS011;35426;30.698;104.050;2022-12-28T05:55:21;83.10;;;44.50;;
17858;SDS011;35426;30.698;104.050;2022-12-28T05:57:57;93.27;;;44.20;;
17858;SDS011;35426;30.698;104.050;2022-12-28T06:00:31;85.60;;;43.30;;
17858;SDS011;35426;30.698;104.050;2022-12-28T06:03:05;83.90;;;44.10;;
17858;SDS011;35426;30.698;104.050;2022-12-28T06:05:39;83.90;;;41.83;;
17858;SDS011;35426;30.698;104.050;2022-12-28T06:08:14;73.07;;;40.40;;
17858;SDS011;35426;30.698;104.050;2022-12-28T06:10:49;76.63;;;42.13;;
17858;SDS011;35426;30.698;104.050;2022-12-28T06:13:26;73.50;;;40.53;;
17858;SDS011;35426;30.698;104.050;2022-12-28T06:16:04;74.97;;;41.03;;
17858;SDS011;35426;30.698;104.050;2022-12-28T06:18:41;74.10;;;40.23;;
17858;SDS011;35426;30.698;104.050;2022-12-28T06:21:16;74.67;;;42.17;;
17858;SDS011;35426;30.698;104.050;2022-12-28T06:23:52;79.90;;;42.10;;
17858;SDS011;35426;30.698;104.050;2022-12-28T06:26:30;75.27;;;42.87;;
17858;SDS011;35426;30.698;104.050;2022-12-28T06:29:08;71.33;;;40.50;;
17858;SDS011;35426;30.698;104.050;2022-12-28T06:31:43;64.20;;;36.03;;
17858;SDS011;35426;30.698;104.050;2022-12-28T06:34:20;65.47;;;35.63;;
17858;SDS011;35426;30.698;104.050;2022-12-28T06:36:54;60.73;;;34.27;;
17858;SDS011;35426;30.698;104.050;2022-12-28T06:39:28;72.10;;;35.43;;
17858;SDS011;35426;30.698;104.050;2022-12-28T06:42:03;70.03;;;36.53;;
17858;SDS011;35426;30.698;104.050;2022-12-28T06:44:41;62.80;;;36.30;;
17858;SDS011;35426;30.698;104.050;2022-12-28T06:47:16;65.93;;;37.00;;
17858;SDS011;35426;30.698;104.050;2022-12-28T06:49:51;65.33;;;37.17;;
17858;SDS011;35426;30.698;104.050;2022-12-28T06:52:25;68.67;;;37.63;;
17858;SDS011;35426;30.698;104.050;2022-12-28T06:55:00;67.13;;;36.90;;
17858;SDS011;35426;30.698;104.050;2022-12-28T06:57:34;65.40;;;36.90;;
17858;SDS011;35426;30.698;104.050;2022-12-28T07:00:11;64.90;;;36.67;;
17858;SDS011;35426;30.698;104.050;2022-12-28T07:02:48;67.57;;;36.73;;
17858;SDS011;35426;30.698;104.050;2022-12-28T07:05:30;64.80;;;36.10;;
17858;SDS011;35426;30.698;104.050;2022-12-28T07:08:10;58.30;;;33.13;;
17858;SDS011;35426;30.698;104.050;2022-12-28T07:10:45;69.67;;;35.70;;
17858;SDS011;35426;30.698;104.050;2022-12-28T07:13:19;64.53;;;34.47;;
17858;SDS011;35426;30.698;104.050;2022-12-28T07:15:59;62.30;;;33.50;;
17858;SDS011;35426;30.698;104.050;2022-12-28T07:18:37;64.77;;;33.13;;
17858;SDS011;35426;30.698;104.050;2022-12-28T07:21:13;60.57;;;33.83;;
17858;SDS011;35426;30.698;104.050;2022-12-28T07:23:50;60.33;;;34.03;;
17858;SDS011;35426;30.698;104.050;2022-12-28T07:26:26;67.63;;;35.00;;
17858;SDS011;35426;30.698;104.050;2022-12-28T07:29:04;65.30;;;33.47;;
17858;SDS011;35426;30.698;104.050;2022-12-28T07:31:41;60.07;;;32.23;;
17858;SDS011;35426;30.698;104.050;2022-12-28T07:34:16;62.13;;;32.00;;
17858;SDS011;35426;30.698;104.050;2022-12-28T07:36:51;63.17;;;30.43;;
17858;SDS011;35426;30.698;104.050;2022-12-28T07:39:27;55.43;;;30.43;;
17858;SDS011;35426;30.698;104.050;2022-12-28T07:42:02;63.07;;;31.83;;
17858;SDS011;35426;30.698;104.050;2022-12-28T07:44:39;61.03;;;33.90;;
17858;SDS011;35426;30.698;104.050;2022-12-28T07:47:18;59.30;;;32.37;;
17858;SDS011;35426;30.698;104.050;2022-12-28T07:49:53;59.63;;;31.70;;
17858;SDS011;35426;30.698;104.050;2022-12-28T07:52:28;72.07;;;35.10;;
17858;SDS011;35426;30.698;104.050;2022-12-28T07:55:03;60.40;;;31.33;;
17858;SDS011;35426;30.698;104.050;2022-12-28T07:57:37;53.57;;;30.43;;
17858;SDS011;35426;30.698;104.050;2022-12-28T08:00:12;64.27;;;31.67;;
17858;SDS011;35426;30.698;104.050;2022-12-28T08:02:49;55.80;;;30.10;;
17858;SDS011;35426;30.698;104.050;2022-12-28T08:05:27;53.97;;;29.90;;
17858;SDS011;35426;30.698;104.050;2022-12-28T08:08:02;58.93;;;29.80;;
17858;SDS011;35426;30.698;104.050;2022-12-28T08:10:36;58.20;;;28.60;;
17858;SDS011;35426;30.698;104.050;2022-12-28T08:13:11;56.87;;;29.50;;
17858;SDS011;35426;30.698;104.050;2022-12-28T08:15:52;60.23;;;29.07;;
17858;SDS011;35426;30.698;104.050;2022-12-28T08:18:28;56.63;;;29.90;;
17858;SDS011;35426;30.698;104.050;2022-12-28T08:21:03;55.50;;;29.90;;
17858;SDS011;35426;30.698;104.050;2022-12-28T08:23:43;59.57;;;29.67;;
17858;SDS011;35426;30.698;104.050;2022-12-28T08:26:18;57.33;;;29.93;;
17858;SDS011;35426;30.698;104.050;2022-12-28T08:28:55;58.53;;;29.37;;
17858;SDS011;35426;30.698;104.050;2022-12-28T08:31:31;57.20;;;28.73;;
17858;SDS011;35426;30.698;104.050;2022-12-28T08:34:17;63.30;;;32.33;;
17858;SDS011;35426;30.698;104.050;2022-12-28T08:36:55;70.10;;;34.97;;
17858;SDS011;35426;30.698;104.050;2022-12-28T08:39:30;66.57;;;34.93;;
17858;SDS011;35426;30.698;104.050;2022-12-28T08:42:04;67.60;;;33.87;;
17858;SDS011;35426;30.698;104.050;2022-12-28T08:44:39;64.93;;;34.80;;
17858;SDS011;35426;30.698;104.050;2022-12-28T08:47:14;63.60;;;32.80;;
17858;SDS011;35426;30.698;104.050;2022-12-28T08:49:50;62.13;;;33.33;;
17858;SDS011;35426;30.698;104.050;2022-12-28T08:52:25;57.93;;;30.97;;
17858;SDS011;35426;30.698;104.050;2022-12-28T08:54:59;67.10;;;30.67;;
17858;SDS011;35426;30.698;104.050;2022-12-28T08:57:33;57.17;;;30.10;;
17858;SDS011;35426;30.698;104.050;2022-12-28T09:00:12;57.33;;;29.83;;
17858;SDS011;35426;30.698;104.050;2022-12-28T09:02:47;57.13;;;30.87;;
17858;SDS011;35426;30.698;104.050;2022-12-28T09:05:23;59.13;;;30.33;;
17858;SDS011;35426;30.698;104.050;2022-12-28T09:08:06;79.67;;;32.50;;
17858;SDS011;35426;30.698;104.050;2022-12-28T09:10:41;70.87;;;34.50;;
17858;SDS011;35426;30.698;104.050;2022-12-28T09:13:15;71.53;;;35.03;;
17858;SDS011;35426;30.698;104.050;2022-12-28T09:15:54;63.37;;;31.63;;
17858;SDS011;35426;30.698;104.050;2022-12-28T09:18:29;68.03;;;36.30;;
17858;SDS011;35426;30.698;104.050;2022-12-28T09:21:06;76.77;;;37.33;;
17858;SDS011;35426;30.698;104.050;2022-12-28T09:23:42;81.90;;;37.00;;
17858;SDS011;35426;30.698;104.050;2022-12-28T09:26:18;75.20;;;38.50;;
17858;SDS011;35426;30.698;104.050;2022-12-28T09:28:53;73.33;;;36.93;;
17858;SDS011;35426;30.698;104.050;2022-12-28T09:31:29;74.40;;;36.87;;
17858;SDS011;35426;30.698;104.050;2022-12-28T09:34:05;72.00;;;36.47;;
17858;SDS011;35426;30.698;104.050;2022-12-28T09:37:03;68.57;;;37.60;;
17858;SDS011;35426;30.698;104.050;2022-12-28T09:39:37;73.63;;;38.00;;
17858;SDS011;35426;30.698;104.050;2022-12-28T09:42:11;72.87;;;37.67;;
17858;SDS011;35426;30.698;104.050;2022-12-28T09:45:00;78.27;;;38.20;;
17858;SDS011;35426;30.698;104.050;2022-12-28T09:47:36;79.27;;;36.10;;
17858;SDS011;35426;30.698;104.050;2022-12-28T09:50:27;73.13;;;36.27;;
17858;SDS011;35426;30.698;104.050;2022-12-28T09:56:07;78.20;;;36.13;;
17858;SDS011;35426;30.698;104.050;2022-12-28T09:58:54;64.57;;;35.27;;
17858;SDS011;35426;30.698;104.050;2022-12-28T10:01:30;67.70;;;35.30;;
17858;SDS011;35426;30.698;104.050;2022-12-28T10:04:06;76.40;;;35.23;;
17858;SDS011;35426;30.698;104.050;2022-12-28T10:06:44;71.67;;;35.77;;
17858;SDS011;35426;30.698;104.050;2022-12-28T10:09:21;70.53;;;35.30;;
17858;SDS011;35426;30.698;104.050;2022-12-28T10:11:59;69.70;;;33.50;;
17858;SDS011;35426;30.698;104.050;2022-12-28T10:14:45;65.37;;;32.53;;
17858;SDS011;35426;30.698;104.050;2022-12-28T10:17:20;60.23;;;32.47;;
17858;SDS011;35426;30.698;104.050;2022-12-28T10:19:59;66.17;;;32.50;;
17858;SDS011;35426;30.698;104.050;2022-12-28T10:22:35;61.83;;;30.87;;
17858;SDS011;35426;30.698;104.050;2022-12-28T10:25:20;65.30;;;30.90;;
17858;SDS011;35426;30.698;104.050;2022-12-28T10:27:56;60.80;;;28.30;;
17858;SDS011;35426;30.698;104.050;2022-12-28T10:30:33;61.63;;;29.77;;
17858;SDS011;35426;30.698;104.050;2022-12-28T10:33:18;52.53;;;26.47;;
17858;SDS011;35426;30.698;104.050;2022-12-28T10:35:54;59.80;;;27.03;;
17858;SDS011;35426;30.698;104.050;2022-12-28T10:38:29;46.43;;;25.67;;
17858;SDS011;35426;30.698;104.050;2022-12-28T10:41:07;54.60;;;27.17;;
17858;SDS011;35426;30.698;104.050;2022-12-28T10:43:49;48.17;;;25.30;;
17858;SDS011;35426;30.698;104.050;2022-12-28T10:46:57;51.57;;;26.17;;
17858;SDS011;35426;30.698;104.050;2022-12-28T10:49:34;50.53;;;25.93;;
17858;SDS011;35426;30.698;104.050;2022-12-28T10:52:18;55.07;;;26.33;;
17858;SDS011;35426;30.698;104.050;2022-12-28T10:54:52;48.60;;;25.93;;
17858;SDS011;35426;30.698;104.050;2022-12-28T10:57:38;58.30;;;26.87;;
17858;SDS011;35426;30.698;104.050;2022-12-28T11:00:32;52.67;;;26.40;;
17858;SDS011;35426;30.698;104.050;2022-12-28T11:03:16;51.07;;;25.93;;
17858;SDS011;35426;30.698;104.050;2022-12-28T11:06:04;54.77;;;26.00;;
17858;SDS011;35426;30.698;104.050;2022-12-28T11:09:02;51.00;;;25.50;;
17858;SDS011;35426;30.698;104.050;2022-12-28T11:11:45;53.57;;;26.47;;
17858;SDS011;35426;30.698;104.050;2022-12-28T11:14:27;51.40;;;25.77;;
17858;SDS011;35426;30.698;104.050;2022-12-28T11:17:11;54.33;;;25.67;;
17858;SDS011;35426;30.698;104.050;2022-12-28T11:19:50;54.43;;;25.20;;
17858;SDS011;35426;30.698;104.050;2022-12-28T11:22:28;47.50;;;24.53;;
17858;SDS011;35426;30.698;104.050;2022-12-28T11:25:05;56.13;;;26.97;;
17858;SDS011;35426;30.698;104.050;2022-12-28T11:27:43;54.73;;;25.57;;
17858;SDS011;35426;30.698;104.050;2022-12-28T11:30:22;60.80;;;26.97;;
17858;SDS011;35426;30.698;104.050;2022-12-28T11:32:58;57.50;;;27.37;;
17858;SDS011;35426;30.698;104.050;2022-12-28T11:35:39;58.73;;;27.57;;
17858;SDS011;35426;30.698;104.050;2022-12-28T11:41:12;54.57;;;26.83;;
17858;SDS011;35426;30.698;104.050;2022-12-28T11:44:47;57.43;;;27.07;;
17858;SDS011;35426;30.698;104.050;2022-12-28T11:47:28;49.77;;;26.10;;
17858;SDS011;35426;30.698;104.050;2022-12-28T11:56:20;53.60;;;24.83;;
17858;SDS011;35426;30.698;104.050;2022-12-28T11:59:03;50.93;;;24.07;;
17858;SDS011;35426;30.698;104.050;2022-12-28T12:01:57;55.27;;;25.37;;
17858;SDS011;35426;30.698;104.050;2022-12-28T12:04:42;51.63;;;24.80;;
17858;SDS011;35426;30.698;104.050;2022-12-28T12:07:21;49.10;;;25.53;;
17858;SDS011;35426;30.698;104.050;2022-12-28T12:16:17;54.17;;;25.30;;
17858;SDS011;35426;30.698;104.050;2022-12-28T12:18:59;56.60;;;25.60;;
17858;SDS011;35426;30.698;104.050;2022-12-28T12:21:45;51.20;;;25.60;;
17858;SDS011;35426;30.698;104.050;2022-12-28T12:24:33;52.70;;;25.70;;
17858;SDS011;35426;30.698;104.050;2022-12-28T12:27:17;49.47;;;24.53;;
17858;SDS011;35426;30.698;104.050;2022-12-28T12:30:05;47.63;;;24.13;;
17858;SDS011;35426;30.698;104.050;2022-12-28T12:32:48;52.33;;;25.37;;
17858;SDS011;35426;30.698;104.050;2022-12-28T12:35:27;49.90;;;24.67;;
17858;SDS011;35426;30.698;104.050;2022-12-28T12:38:09;47.00;;;24.17;;
17858;SDS011;35426;30.698;104.050;2022-12-28T12:40:59;53.97;;;24.67;;
17858;SDS011;35426;30.698;104.050;2022-12-28T12:43:55;53.00;;;24.87;;
17858;SDS011;35426;30.698;104.050;2022-12-28T12:49:55;50.13;;;25.50;;
17858;SDS011;35426;30.698;104.050;2022-12-28T12:53:04;48.87;;;24.63;;
17858;SDS011;35426;30.698;104.050;2022-12-28T12:55:53;51.97;;;24.37;;
17858;SDS011;35426;30.698;104.050;2022-12-28T12:58:37;48.67;;;24.07;;
17858;SDS011;35426;30.698;104.050;2022-12-28T13:01:25;46.93;;;23.90;;
17858;SDS011;35426;30.698;104.050;2022-12-28T13:04:08;51.53;;;23.80;;
17858;SDS011;35426;30.698;104.050;2022-12-28T13:06:52;45.03;;;22.90;;
17858;SDS011;35426;30.698;104.050;2022-12-28T13:09:37;53.00;;;23.70;;
17858;SDS011;35426;30.698;104.050;2022-12-28T13:12:15;44.83;;;23.83;;
17858;SDS011;35426;30.698;104.050;2022-12-28T13:14:53;45.10;;;22.47;;
17858;SDS011;35426;30.698;104.050;2022-12-28T13:17:40;47.87;;;22.93;;
17858;SDS011;35426;30.698;104.050;2022-12-28T13:20:54;49.00;;;24.03;;
17858;SDS011;35426;30.698;104.050;2022-12-28T13:23:41;42.40;;;22.83;;
17858;SDS011;35426;30.698;104.050;2022-12-28T13:26:21;42.30;;;22.80;;
17858;SDS011;35426;30.698;104.050;2022-12-28T13:29:07;48.47;;;23.67;;
17858;SDS011;35426;30.698;104.050;2022-12-28T13:31:48;47.50;;;23.90;;
17858;SDS011;35426;30.698;104.050;2022-12-28T13:34:25;49.07;;;23.03;;
17858;SDS011;35426;30.698;104.050;2022-12-28T13:37:10;44.03;;;23.03;;
17858;SDS011;35426;30.698;104.050;2022-12-28T13:39:49;53.07;;;24.53;;
17858;SDS011;35426;30.698;104.050;2022-12-28T13:42:44;49.83;;;23.60;;
17858;SDS011;35426;30.698;104.050;2022-12-28T13:45:28;48.77;;;24.00;;
17858;SDS011;35426;30.698;104.050;2022-12-28T13:48:06;50.17;;;24.30;;
17858;SDS011;35426;30.698;104.050;2022-12-28T13:50:42;48.90;;;23.57;;
17858;SDS011;35426;30.698;104.050;2022-12-28T13:53:20;50.50;;;24.20;;
17858;SDS011;35426;30.698;104.050;2022-12-28T13:55:59;55.80;;;23.50;;
17858;SDS011;35426;30.698;104.050;2022-12-28T13:58:41;44.27;;;23.00;;
17858;SDS011;35426;30.698;104.050;2022-12-28T14:01:22;45.83;;;23.83;;
17858;SDS011;35426;30.698;104.050;2022-12-28T14:04:02;51.33;;;24.07;;
17858;SDS011;35426;30.698;104.050;2022-12-28T14:07:00;47.30;;;25.20;;
17858;SDS011;35426;30.698;104.050;2022-12-28T14:09:44;55.27;;;24.93;;
17858;SDS011;35426;30.698;104.050;2022-12-28T14:12:21;51.57;;;24.37;;
17858;SDS011;35426;30.698;104.050;2022-12-28T14:14:59;53.90;;;25.47;;
17858;SDS011;35426;30.698;104.050;2022-12-28T14:17:36;49.03;;;23.47;;
17858;SDS011;35426;30.698;104.050;2022-12-28T14:20:14;54.13;;;26.80;;
17858;SDS011;35426;30.698;104.050;2022-12-28T14:22:50;58.07;;;26.33;;
17858;SDS011;35426;30.698;104.050;2022-12-28T14:25:26;53.53;;;26.30;;
17858;SDS011;35426;30.698;104.050;2022-12-28T14:28:17;51.10;;;25.70;;
17858;SDS011;35426;30.698;104.050;2022-12-28T14:30:57;50.43;;;26.47;;
17858;SDS011;35426;30.698;104.050;2022-12-28T14:33:35;50.00;;;26.47;;
17858;SDS011;35426;30.698;104.050;2022-12-28T14:36:23;52.43;;;26.53;;
17858;SDS011;35426;30.698;104.050;2022-12-28T14:39:02;58.20;;;27.33;;
17858;SDS011;35426;30.698;104.050;2022-12-28T14:41:39;53.77;;;26.77;;
17858;SDS011;35426;30.698;104.050;2022-12-28T14:44:20;54.97;;;26.73;;
17858;SDS011;35426;30.698;104.050;2022-12-28T14:47:27;55.23;;;27.13;;
17858;SDS011;35426;30.698;104.050;2022-12-28T14:50:14;52.60;;;26.10;;
17858;SDS011;35426;30.698;104.050;2022-12-28T14:53:00;60.63;;;27.37;;
17858;SDS011;35426;30.698;104.050;2022-12-28T14:55:40;55.03;;;27.40;;
17858;SDS011;35426;30.698;104.050;2022-12-28T14:58:27;51.67;;;27.43;;
17858;SDS011;35426;30.698;104.050;2022-12-28T15:01:18;54.43;;;27.93;;
17858;SDS011;35426;30.698;104.050;2022-12-28T15:03:59;52.60;;;27.33;;
17858;SDS011;35426;30.698;104.050;2022-12-28T15:06:37;58.33;;;28.27;;
17858;SDS011;35426;30.698;104.050;2022-12-28T15:09:13;54.73;;;28.40;;
17858;SDS011;35426;30.698;104.050;2022-12-28T15:14:45;58.77;;;29.03;;
17858;SDS011;35426;30.698;104.050;2022-12-28T15:17:22;59.37;;;28.57;;
17858;SDS011;35426;30.698;104.050;2022-12-28T15:20:03;55.30;;;27.10;;
17858;SDS011;35426;30.698;104.050;2022-12-28T15:22:42;54.70;;;28.37;;
17858;SDS011;35426;30.698;104.050;2022-12-28T15:25:20;51.63;;;27.97;;
17858;SDS011;35426;30.698;104.050;2022-12-28T15:28:02;61.00;;;29.30;;
17858;SDS011;35426;30.698;104.050;2022-12-28T15:30:41;53.93;;;28.13;;
17858;SDS011;35426;30.698;104.050;2022-12-28T15:33:18;59.30;;;29.57;;
17858;SDS011;35426;30.698;104.050;2022-12-28T15:36:03;56.93;;;29.13;;
17858;SDS011;35426;30.698;104.050;2022-12-28T15:38:45;65.70;;;30.50;;
17858;SDS011;35426;30.698;104.050;2022-12-28T15:41:22;67.10;;;30.40;;
17858;SDS011;35426;30.698;104.050;2022-12-28T15:44:13;60.87;;;29.17;;